Time;durP1;ratioP1;P1;durP2;ratioP2;P2;SDS_P1;SDS_P2;PMS_P1;PMS_P2;Temp;Humidity;BMP_temperature;BMP_pressure;BME280_temperature;BME280_humidity;BME280_pressure;Samples;Min_cycle;Max_cycle;Signal;HPM_P1;HPM_P2
2023/07/04 00:01:00;;;;;;;4.10;3.40;;;19.40;88.00;;;;;;5046486;28;20421;-63
2023/07/04 00:03:28;;;;;;;7.30;3.73;;;19.40;87.60;;;;;;5034448;28;20420;-63
2023/07/04 00:05:55;;;;;;;5.50;3.80;;;19.40;88.00;;;;;;5051902;28;20420;-63
2023/07/04 00:08:23;;;;;;;3.60;3.37;;;19.30;89.00;;;;;;5053003;28;20786;-63
2023/07/04 00:10:50;;;;;;;5.13;4.10;;;19.30;87.60;;;;;;5051952;28;20416;-63
2023/07/04 00:13:17;;;;;;;4.57;3.33;;;19.30;90.40;;;;;;5049810;28;20500;-63
2023/07/04 00:15:53;;;;;;;6.10;3.90;;;19.30;88.80;;;;;;5046201;28;20417;-63
2023/07/04 00:18:21;;;;;;;3.87;3.57;;;19.30;90.00;;;;;;5032898;28;20416;-63
2023/07/04 00:20:55;;;;;;;4.57;3.80;;;19.20;89.60;;;;;;5039274;28;20419;-63
2023/07/04 00:23:22;;;;;;;4.13;3.80;;;19.30;90.80;;;;;;5052126;28;20420;-63
2023/07/04 00:25:48;;;;;;;5.60;4.50;;;19.40;90.20;;;;;;5049827;28;20413;-63
2023/07/04 00:28:14;;;;;;;7.10;4.30;;;19.30;89.10;;;;;;5034011;28;20428;-63
2023/07/04 00:30:40;;;;;;;4.63;4.20;;;19.30;90.90;;;;;;5032617;28;20162;-63
2023/07/04 00:33:07;;;;;;;4.47;4.07;;;19.30;90.60;;;;;;5032226;28;20190;-63
2023/07/04 00:35:33;;;;;;;7.23;3.70;;;19.30;90.40;;;;;;5032721;28;20974;-63
2023/07/04 00:37:58;;;;;;;6.00;4.30;;;19.20;91.00;;;;;;5033186;28;20178;-64
2023/07/04 00:40:27;;;;;;;4.13;3.73;;;19.20;90.60;;;;;;5032130;28;20276;-63
2023/07/04 00:43:02;;;;;;;5.83;4.80;;;19.20;90.50;;;;;;5042528;28;20185;-64
2023/07/04 00:45:31;;;;;;;7.00;4.17;;;19.10;90.80;;;;;;5033975;28;20502;-63
2023/07/04 00:48:03;;;;;;;5.37;3.80;;;19.10;90.90;;;;;;5036133;28;20424;-63
2023/07/04 00:50:43;;;;;;;4.40;3.40;;;19.10;91.30;;;;;;5039764;28;20808;-63
2023/07/04 00:53:11;;;;;;;5.43;4.33;;;19.20;92.00;;;;;;5035681;28;20480;-63
2023/07/04 00:55:41;;;;;;;5.07;4.60;;;19.20;91.70;;;;;;5046832;28;20887;-63
2023/07/04 00:58:07;;;;;;;10.03;4.30;;;19.10;90.80;;;;;;5044078;28;20426;-63
2023/07/04 01:00:37;;;;;;;7.10;4.77;;;19.10;91.30;;;;;;5038860;28;20425;-63
2023/07/04 01:03:15;;;;;;;6.87;4.10;;;19.10;91.60;;;;;;5052676;28;20470;-63
2023/07/04 01:06:14;;;;;;;5.23;3.50;;;19.10;91.10;;;;;;5035600;28;20499;-63
2023/07/04 01:08:42;;;;;;;6.53;3.87;;;19.10;91.80;;;;;;5034698;28;20899;-63
2023/07/04 01:11:15;;;;;;;6.93;3.90;;;19.00;91.40;;;;;;5046616;28;20416;-63
2023/07/04 01:13:45;;;;;;;5.30;3.67;;;19.00;91.70;;;;;;5051352;28;20487;-63
2023/07/04 01:16:17;;;;;;;4.97;4.57;;;19.00;92.10;;;;;;5045836;28;20425;-62
2023/07/04 01:18:50;;;;;;;5.80;4.10;;;18.90;91.70;;;;;;5047115;28;20477;-64
2023/07/04 01:21:19;;;;;;;5.23;4.53;;;18.90;91.70;;;;;;5040333;28;20401;-63
2023/07/04 01:24:11;;;;;;;6.97;4.00;;;18.90;92.50;;;;;;5033496;28;20429;-63
2023/07/04 01:26:38;;;;;;;5.40;4.20;;;18.80;93.00;;;;;;5043890;28;20411;-63
2023/07/04 01:29:07;;;;;;;7.53;4.60;;;18.70;93.00;;;;;;5051970;28;20416;-64
2023/07/04 01:31:35;;;;;;;6.63;4.57;;;18.70;93.00;;;;;;5047887;28;20496;-63
2023/07/04 01:34:04;;;;;;;6.67;4.10;;;18.80;93.90;;;;;;5032488;28;20437;-64
2023/07/04 01:36:32;;;;;;;7.93;5.00;;;18.80;93.50;;;;;;5031225;28;20766;-64
2023/07/04 01:38:57;;;;;;;4.30;3.70;;;18.70;93.60;;;;;;5032203;28;20453;-64
2023/07/04 01:41:24;;;;;;;5.50;4.57;;;18.70;93.80;;;;;;5032067;28;20558;-64
2023/07/04 01:43:58;;;;;;;7.90;4.60;;;18.70;94.90;;;;;;5033724;28;20274;-64
2023/07/04 01:46:26;;;;;;;5.00;4.50;;;18.70;94.40;;;;;;5031774;28;20389;-63
2023/07/04 01:48:52;;;;;;;4.13;3.67;;;18.70;93.70;;;;;;5049046;28;20912;-61
2023/07/04 01:51:25;;;;;;;6.00;4.17;;;18.70;94.20;;;;;;5048033;28;20440;-63
2023/07/04 01:53:51;;;;;;;7.93;4.93;;;18.70;94.70;;;;;;5032255;28;20463;-64
2023/07/04 01:56:17;;;;;;;7.17;4.57;;;18.70;94.10;;;;;;5037055;28;20503;-63
2023/07/04 01:58:42;;;;;;;6.30;4.57;;;18.60;95.70;;;;;;5048731;28;20178;-64
2023/07/04 02:01:08;;;;;;;5.27;4.20;;;18.60;94.90;;;;;;5050635;28;20161;-62
2023/07/04 02:03:36;;;;;;;6.43;4.57;;;18.60;95.20;;;;;;5052074;28;20686;-63
2023/07/04 02:06:01;;;;;;;9.33;4.90;;;18.60;94.90;;;;;;5040044;28;20448;-64
2023/07/04 02:08:27;;;;;;;6.27;4.57;;;18.50;96.30;;;;;;5031415;28;20913;-63
2023/07/04 02:10:53;;;;;;;11.00;5.30;;;18.50;95.20;;;;;;5037462;28;20177;-63
2023/07/04 02:13:19;;;;;;;6.57;4.30;;;18.50;96.00;;;;;;5035225;28;20533;-63
2023/07/04 02:15:44;;;;;;;7.90;4.47;;;18.50;96.20;;;;;;5036850;28;20174;-63
2023/07/04 02:18:10;;;;;;;6.07;4.50;;;18.50;95.50;;;;;;5035182;28;20171;-63
2023/07/04 02:20:36;;;;;;;5.17;4.30;;;18.60;95.90;;;;;;5035724;28;20253;-64
2023/07/04 02:23:02;;;;;;;8.13;4.90;;;18.50;95.50;;;;;;5035452;28;20206;-64
2023/07/04 02:25:27;;;;;;;6.40;4.70;;;18.50;95.50;;;;;;5035098;28;20624;-63
2023/07/04 02:27:53;;;;;;;6.80;4.90;;;18.50;95.60;;;;;;5035638;28;20190;-64
2023/07/04 02:30:19;;;;;;;8.77;4.40;;;18.40;96.30;;;;;;5034542;28;20610;-63
2023/07/04 02:32:44;;;;;;;5.03;4.53;;;18.40;96.00;;;;;;5053400;28;20241;-63
2023/07/04 02:35:10;;;;;;;5.93;4.17;;;18.40;96.50;;;;;;5054593;28;20283;-61
2023/07/04 02:37:36;;;;;;;7.33;4.80;;;18.40;96.60;;;;;;5052749;28;20165;-63
2023/07/04 02:40:02;;;;;;;9.50;4.60;;;18.30;97.10;;;;;;5035133;28;20214;-63
2023/07/04 02:42:28;;;;;;;5.83;4.50;;;18.20;97.00;;;;;;5034453;28;20610;-63
2023/07/04 02:44:53;;;;;;;6.50;4.87;;;18.20;97.30;;;;;;5035284;28;20500;-63
2023/07/04 02:47:23;;;;;;;5.80;4.23;;;18.30;98.00;;;;;;5034704;28;20170;-63
2023/07/04 02:49:48;;;;;;;9.53;4.63;;;18.20;97.40;;;;;;5034902;28;20170;-63
2023/07/04 02:52:14;;;;;;;5.37;4.70;;;18.20;97.70;;;;;;5034425;28;20796;-63
2023/07/04 02:54:40;;;;;;;7.33;4.97;;;18.20;97.90;;;;;;5017566;28;20200;-63
2023/07/04 02:57:06;;;;;;;7.80;4.20;;;18.20;98.10;;;;;;5035033;28;20575;-63
2023/07/04 02:59:31;;;;;;;5.20;3.70;;;18.20;97.80;;;;;;5016522;28;20178;-63
2023/07/04 03:01:57;;;;;;;8.10;4.83;;;18.30;97.90;;;;;;5016856;28;20190;-64
2023/07/04 03:04:23;;;;;;;7.00;3.87;;;18.20;97.90;;;;;;5047431;28;20177;-63
2023/07/04 03:06:48;;;;;;;6.80;4.30;;;18.10;98.40;;;;;;5054825;28;20169;-63
2023/07/04 03:09:14;;;;;;;7.40;4.10;;;17.90;98.90;;;;;;5035964;28;20613;-63
2023/07/04 03:11:40;;;;;;;6.57;4.13;;;17.90;99.90;;;;;;5054642;28;20252;-63
2023/07/04 03:14:06;;;;;;;4.97;4.47;;;18.00;99.80;;;;;;5054691;28;20227;-64
2023/07/04 03:16:31;;;;;;;7.03;4.77;;;17.90;99.90;;;;;;5042811;28;20170;-63
2023/07/04 03:18:57;;;;;;;6.10;3.90;;;17.90;99.90;;;;;;5034612;28;20204;-63
2023/07/04 03:21:23;;;;;;;6.83;4.33;;;18.00;99.90;;;;;;5046301;28;20170;-63
2023/07/04 03:23:48;;;;;;;7.00;5.00;;;17.90;99.90;;;;;;5053256;28;20181;-63
2023/07/04 03:26:14;;;;;;;7.00;4.23;;;18.00;99.90;;;;;;5053854;28;20253;-62
2023/07/04 03:28:40;;;;;;;6.13;3.90;;;18.00;99.90;;;;;;5054344;28;20195;-63
2023/07/04 03:31:05;;;;;;;5.33;4.63;;;18.10;99.90;;;;;;5050595;28;20257;-63
2023/07/04 03:33:31;;;;;;;9.00;4.47;;;18.10;99.90;;;;;;5053562;28;20201;-63
2023/07/04 03:35:57;;;;;;;6.67;4.40;;;18.10;99.90;;;;;;5047092;28;20641;-64
2023/07/04 03:38:24;;;;;;;6.07;4.40;;;18.10;99.90;;;;;;5033512;28;20202;-63
2023/07/04 03:40:50;;;;;;;5.70;4.50;;;18.10;99.90;;;;;;5034386;28;20453;-63
2023/07/04 03:43:16;;;;;;;5.70;5.00;;;18.10;99.90;;;;;;5033660;28;20411;-63
2023/07/04 03:45:45;;;;;;;7.20;4.17;;;18.10;99.90;;;;;;5034249;28;20413;-63
2023/07/04 03:48:10;;;;;;;8.50;3.97;;;18.20;99.90;;;;;;5034510;28;20174;-64
2023/07/04 03:50:37;;;;;;;7.93;4.03;;;18.20;99.90;;;;;;5033433;28;20409;-63
2023/07/04 03:53:03;;;;;;;11.60;6.53;;;18.20;99.90;;;;;;5033902;28;20198;-64
2023/07/04 03:55:28;;;;;;;11.33;7.30;;;18.20;99.90;;;;;;5034628;28;20421;-63
2023/07/04 03:57:54;;;;;;;8.10;4.47;;;18.20;99.90;;;;;;5053622;28;20169;-63
2023/07/04 04:00:20;;;;;;;8.93;3.77;;;18.20;99.90;;;;;;5052863;28;20173;-63
2023/07/04 04:02:45;;;;;;;8.83;4.10;;;18.20;99.90;;;;;;5052536;28;20189;-64
2023/07/04 04:05:12;;;;;;;12.17;6.90;;;18.20;99.90;;;;;;5046549;28;20172;-64
2023/07/04 04:07:37;;;;;;;10.17;6.70;;;18.20;99.90;;;;;;5033085;28;20167;-63
2023/07/04 04:10:04;;;;;;;8.10;5.40;;;18.20;99.90;;;;;;5033528;28;20421;-64
2023/07/04 04:12:30;;;;;;;7.93;7.13;;;18.10;99.90;;;;;;5052101;28;20200;-63
2023/07/04 04:14:56;;;;;;;8.53;4.40;;;18.10;99.90;;;;;;5053881;28;20423;-63
2023/07/04 04:17:22;;;;;;;9.07;4.87;;;18.10;99.90;;;;;;5051190;28;20409;-63
2023/07/04 04:19:47;;;;;;;7.40;4.00;;;18.20;99.90;;;;;;5052938;28;20166;-63
2023/07/04 04:22:14;;;;;;;7.77;4.13;;;18.20;99.90;;;;;;5039122;28;20638;-63
2023/07/04 04:24:40;;;;;;;11.53;5.20;;;18.10;99.90;;;;;;5033165;28;20174;-63
2023/07/04 04:27:11;;;;;;;9.50;4.90;;;18.20;99.90;;;;;;5040080;28;20543;-63
2023/07/04 04:29:36;;;;;;;8.57;5.20;;;18.20;99.90;;;;;;5042977;28;20403;-63
2023/07/04 04:32:02;;;;;;;8.07;4.97;;;18.10;99.90;;;;;;5053128;28;20784;-64
2023/07/04 04:34:28;;;;;;;9.10;4.50;;;18.10;99.90;;;;;;5052465;28;20176;-63
2023/07/04 04:36:54;;;;;;;11.10;4.97;;;18.20;99.90;;;;;;5033783;28;20409;-63
2023/07/04 04:39:20;;;;;;;8.13;5.20;;;18.20;99.90;;;;;;5051266;28;20564;-62
2023/07/04 04:41:46;;;;;;;12.70;5.93;;;18.10;99.90;;;;;;5037682;28;20669;-63
2023/07/04 04:44:12;;;;;;;8.93;7.30;;;18.20;99.90;;;;;;5032824;28;20413;-64
2023/07/04 04:46:44;;;;;;;12.40;5.70;;;18.20;99.90;;;;;;5033019;28;20631;-63
2023/07/04 04:49:10;;;;;;;14.93;7.47;;;18.20;99.90;;;;;;5033443;28;20405;-63
2023/07/04 04:51:36;;;;;;;7.07;4.53;;;18.20;99.90;;;;;;5047028;28;20482;-63
2023/07/04 04:54:02;;;;;;;9.57;8.37;;;18.20;99.90;;;;;;5015244;28;20231;-63
2023/07/04 04:56:28;;;;;;;8.20;5.23;;;18.30;99.90;;;;;;5031902;28;20252;-63
2023/07/04 04:58:54;;;;;;;12.53;4.50;;;18.30;99.90;;;;;;5044864;28;20420;-63
2023/07/04 05:01:22;;;;;;;8.27;5.07;;;18.40;99.90;;;;;;5037960;28;20740;-62
2023/07/04 05:03:54;;;;;;;10.10;4.80;;;18.40;99.90;;;;;;5035087;28;20589;-63
2023/07/04 05:06:23;;;;;;;8.37;4.73;;;18.40;99.90;;;;;;5046576;28;20849;-62
2023/07/04 05:08:50;;;;;;;8.03;6.57;;;18.30;99.90;;;;;;5047167;28;20470;-64
2023/07/04 05:11:16;;;;;;;8.20;5.90;;;18.30;99.90;;;;;;5033014;28;20750;-63
2023/07/04 05:13:45;;;;;;;9.97;7.23;;;18.20;99.90;;;;;;5041690;28;20452;-63
2023/07/04 05:16:14;;;;;;;6.10;4.60;;;18.30;99.90;;;;;;5038835;28;20421;-63
2023/07/04 05:18:42;;;;;;;6.87;4.90;;;18.40;99.90;;;;;;5034183;28;20714;-63
2023/07/04 05:21:09;;;;;;;11.80;4.50;;;18.40;99.90;;;;;;5032590;28;20492;-63
2023/07/04 05:23:37;;;;;;;8.23;4.43;;;18.40;99.90;;;;;;5031957;28;20432;-63
2023/07/04 05:26:32;;;;;;;9.80;5.73;;;18.30;99.90;;;;;;5039554;28;20417;-63
2023/07/04 05:28:58;;;;;;;8.87;4.77;;;18.30;99.90;;;;;;4994770;28;20431;-63
2023/07/04 05:31:27;;;;;;;13.60;5.10;;;18.40;99.90;;;;;;5033655;28;20424;-63
2023/07/04 05:33:54;;;;;;;9.43;5.47;;;18.40;99.90;;;;;;5032463;28;20477;-63
2023/07/04 05:36:26;;;;;;;7.70;6.70;;;18.50;99.90;;;;;;5032119;28;20893;-63
2023/07/04 05:38:59;;;;;;;8.30;4.60;;;18.50;99.90;;;;;;5032057;28;20457;-63
2023/07/04 05:41:26;;;;;;;9.93;5.77;;;18.50;99.90;;;;;;5044082;28;20773;-62
2023/07/04 05:43:55;;;;;;;10.10;5.73;;;18.50;99.90;;;;;;5052047;28;20900;-63
2023/07/04 05:46:21;;;;;;;10.33;5.80;;;18.60;99.90;;;;;;5042956;28;20420;-61
2023/07/04 05:48:47;;;;;;;10.77;5.13;;;18.70;99.90;;;;;;5055529;28;20443;-62
2023/07/04 05:51:14;;;;;;;10.50;4.97;;;18.80;99.90;;;;;;5051831;28;20415;-62
2023/07/04 05:53:43;;;;;;;12.20;6.73;;;19.10;99.90;;;;;;5052142;28;20201;-62
2023/07/04 05:56:17;;;;;;;9.57;6.60;;;19.30;99.90;;;;;;5036114;28;20403;-62
2023/07/04 05:58:46;;;;;;;7.03;5.07;;;19.50;99.90;;;;;;5035454;28;20636;-62
2023/07/04 06:01:15;;;;;;;7.60;6.03;;;19.60;99.90;;;;;;5038271;28;20413;-63
2023/07/04 06:03:41;;;;;;;6.73;5.90;;;19.80;99.90;;;;;;5047159;28;20431;-62
2023/07/04 06:06:17;;;;;;;8.07;5.80;;;19.90;99.90;;;;;;5045207;28;20425;-62
2023/07/04 06:08:43;;;;;;;9.53;5.40;;;20.00;99.40;;;;;;5019356;28;20785;-62
2023/07/04 06:11:09;;;;;;;11.50;6.03;;;20.00;98.60;;;;;;5044165;28;20504;-62
2023/07/04 06:13:35;;;;;;;13.33;6.73;;;20.00;99.20;;;;;;5044475;28;20448;-62
2023/07/04 06:16:03;;;;;;;8.50;5.53;;;20.10;99.00;;;;;;5042483;28;20498;-62
2023/07/04 06:18:29;;;;;;;8.40;5.17;;;20.20;98.80;;;;;;5040941;28;20182;-62
2023/07/04 06:21:08;;;;;;;10.30;6.03;;;20.20;97.90;;;;;;5054554;28;20419;-61
2023/07/04 06:23:34;;;;;;;13.40;5.90;;;20.20;98.10;;;;;;5034717;28;20588;-62
2023/07/04 06:26:00;;;;;;;8.50;4.80;;;20.10;98.60;;;;;;5042089;28;20512;-63
2023/07/04 06:28:25;;;;;;;9.30;4.70;;;20.00;98.90;;;;;;5054989;28;20166;-72
2023/07/04 06:30:51;;;;;;;9.10;5.47;;;19.80;99.20;;;;;;5028596;28;20483;-60
2023/07/04 06:33:17;;;;;;;8.80;6.10;;;19.70;99.60;;;;;;5041382;28;20632;-60
2023/07/04 06:35:43;;;;;;;6.97;5.90;;;19.50;98.90;;;;;;5035938;28;20190;-63
2023/07/04 06:38:10;;;;;;;9.87;5.20;;;19.40;99.70;;;;;;5035102;28;20171;-62
2023/07/04 06:40:38;;;;;;;8.87;5.50;;;19.30;99.70;;;;;;5042094;28;20457;-62
2023/07/04 06:43:05;;;;;;;14.50;8.07;;;19.10;99.90;;;;;;5040392;28;20916;-62
2023/07/04 06:45:35;;;;;;;7.63;5.70;;;19.10;99.90;;;;;;5046103;28;20477;-61
2023/07/04 06:48:02;;;;;;;6.93;5.50;;;19.10;99.90;;;;;;5044774;28;20409;-63
2023/07/04 06:50:28;;;;;;;8.60;6.63;;;19.00;99.90;;;;;;5041853;28;20738;-61
2023/07/04 06:52:54;;;;;;;7.97;5.57;;;19.00;99.90;;;;;;5034357;28;20206;-66
2023/07/04 06:55:21;;;;;;;7.20;4.83;;;19.00;99.90;;;;;;5034913;28;20943;-63
2023/07/04 06:57:47;;;;;;;5.63;4.77;;;19.00;99.90;;;;;;5032520;28;20500;-62
2023/07/04 07:00:13;;;;;;;10.50;6.30;;;19.00;99.90;;;;;;5037465;28;20579;-62
2023/07/04 07:02:38;;;;;;;8.30;5.93;;;19.00;99.90;;;;;;5048913;28;20185;-62
2023/07/04 07:05:06;;;;;;;8.40;5.60;;;19.00;99.90;;;;;;5038817;28;20634;-65
2023/07/04 07:07:32;;;;;;;7.33;6.00;;;19.00;99.90;;;;;;5039919;28;20174;-62
2023/07/04 07:09:57;;;;;;;9.93;5.60;;;19.10;99.90;;;;;;5034226;28;20749;-62
2023/07/04 07:12:23;;;;;;;7.20;6.67;;;19.10;99.90;;;;;;5033725;28;20292;-60
2023/07/04 07:14:49;;;;;;;9.47;6.83;;;19.30;99.90;;;;;;5041877;28;20174;-60
2023/07/04 07:17:14;;;;;;;6.27;4.40;;;19.40;99.90;;;;;;5034853;28;20686;-60
2023/07/04 07:19:40;;;;;;;9.70;4.57;;;19.40;99.70;;;;;;5034253;28;20209;-60
2023/07/04 07:22:06;;;;;;;9.20;5.67;;;19.50;99.70;;;;;;5040718;28;20182;-60
2023/07/04 07:24:33;;;;;;;6.80;4.20;;;19.50;99.70;;;;;;5033325;28;20609;-61
2023/07/04 07:26:59;;;;;;;7.63;4.83;;;19.60;99.30;;;;;;5023257;28;20178;-60
2023/07/04 07:29:26;;;;;;;9.73;4.90;;;19.70;99.20;;;;;;5033116;28;20940;-60
2023/07/04 07:31:59;;;;;;;7.57;6.20;;;19.70;99.40;;;;;;5048142;28;20420;-60
2023/07/04 07:34:25;;;;;;;7.10;5.47;;;19.70;98.50;;;;;;5037008;28;20404;-62
2023/07/04 07:36:51;;;;;;;8.70;6.13;;;19.80;98.40;;;;;;5026043;28;20447;-61
2023/07/04 07:39:17;;;;;;;10.17;6.43;;;19.70;97.60;;;;;;5040129;28;20217;-65
2023/07/04 07:41:46;;;;;;;30.63;22.30;;;19.80;98.90;;;;;;5033737;28;20236;-64
2023/07/04 07:44:13;;;;;;;9.53;5.70;;;20.00;99.90;;;;;;5033659;28;20175;-64
2023/07/04 07:46:40;;;;;;;7.43;5.87;;;20.10;97.80;;;;;;5033334;28;20401;-64
2023/07/04 07:49:06;;;;;;;29.20;21.10;;;20.10;98.10;;;;;;5034145;28;20727;-64
2023/07/04 07:51:32;;;;;;;53.37;38.97;;;20.10;99.10;;;;;;5033190;28;20853;-65
2023/07/04 07:54:00;;;;;;;16.50;13.13;;;19.90;97.90;;;;;;5033960;28;20598;-64
2023/07/04 07:56:33;;;;;;;28.70;22.47;;;19.90;97.20;;;;;;5033934;28;20405;-64
2023/07/04 07:58:59;;;;;;;64.50;48.20;;;19.90;97.80;;;;;;5034200;28;20390;-63
2023/07/04 08:01:29;;;;;;;31.27;26.80;;;19.70;97.50;;;;;;5033635;28;20393;-63
2023/07/04 08:03:56;;;;;;;11.63;7.47;;;19.70;97.30;;;;;;5032803;28;20405;-63
2023/07/04 08:06:33;;;;;;;17.83;12.83;;;19.70;98.70;;;;;;5033378;28;20405;-64
2023/07/04 08:09:01;;;;;;;6.13;5.10;;;20.00;98.70;;;;;;5034285;28;20517;-63
2023/07/04 08:11:28;;;;;;;17.77;13.23;;;20.20;98.20;;;;;;5053640;28;20412;-64
2023/07/04 08:13:55;;;;;;;11.40;6.27;;;20.20;97.60;;;;;;5052950;28;20458;-64
2023/07/04 08:16:27;;;;;;;10.97;7.43;;;20.30;96.70;;;;;;5053731;28;20427;-64
2023/07/04 08:18:53;;;;;;;10.23;9.20;;;20.60;96.30;;;;;;5052886;28;20400;-64
2023/07/04 08:21:19;;;;;;;6.37;5.77;;;20.80;96.40;;;;;;5053703;28;20405;-64
2023/07/04 08:23:45;;;;;;;10.60;8.27;;;21.00;95.70;;;;;;5052658;28;20898;-64
2023/07/04 08:26:19;;;;;;;10.77;8.33;;;21.00;94.70;;;;;;5042068;28;20174;-64
2023/07/04 08:28:45;;;;;;;9.20;5.00;;;21.00;94.70;;;;;;5041096;28;20393;-64
2023/07/04 08:31:11;;;;;;;8.00;5.80;;;20.80;93.60;;;;;;5043283;28;20411;-64
2023/07/04 08:33:37;;;;;;;5.87;5.03;;;20.80;94.50;;;;;;5041334;28;20460;-64
2023/07/04 08:36:06;;;;;;;7.80;5.60;;;20.80;93.90;;;;;;5038473;28;20417;-64
2023/07/04 08:38:32;;;;;;;10.33;7.30;;;20.90;94.80;;;;;;5037435;28;20831;-66
2023/07/04 08:40:59;;;;;;;6.27;5.67;;;21.00;93.90;;;;;;5042026;28;20398;-64
2023/07/04 08:43:46;;;;;;;5.53;5.00;;;21.00;93.90;;;;;;5042490;28;20445;-64
2023/07/04 08:46:15;;;;;;;6.73;4.80;;;21.00;93.30;;;;;;5043057;28;20428;-65
2023/07/04 08:48:42;;;;;;;8.80;4.80;;;21.10;93.40;;;;;;5032041;28;20497;-64
2023/07/04 08:51:13;;;;;;;5.40;5.00;;;21.20;92.50;;;;;;5044252;28;20412;-64
2023/07/04 08:53:43;;;;;;;7.53;3.90;;;21.20;90.80;;;;;;5040938;28;20825;-64
2023/07/04 08:56:24;;;;;;;5.47;4.00;;;21.30;91.20;;;;;;5043611;28;20435;-64
2023/07/04 08:59:44;;;;;;;6.37;5.10;;;21.50;91.50;;;;;;5039053;28;20923;-64
2023/07/04 09:02:41;;;;;;;7.47;5.80;;;21.60;90.40;;;;;;5037875;28;20925;-64
2023/07/04 09:05:12;;;;;;;9.13;7.83;;;21.70;90.20;;;;;;5040682;28;20413;-64
2023/07/04 09:08:03;;;;;;;6.50;5.90;;;21.70;90.00;;;;;;5024991;28;20751;-64
2023/07/04 09:10:49;;;;;;;7.93;5.20;;;21.70;90.20;;;;;;5037976;28;20405;-64
2023/07/04 09:13:24;;;;;;;7.03;5.00;;;21.70;89.50;;;;;;5032678;28;20441;-64
2023/07/04 09:15:52;;;;;;;6.77;6.10;;;21.70;88.40;;;;;;5032156;28;20837;-64
2023/07/04 09:18:32;;;;;;;4.97;4.47;;;21.80;89.40;;;;;;5032509;28;20489;-69
2023/07/04 09:21:11;;;;;;;18.87;16.83;;;21.90;84.90;;;;;;5031421;28;20396;-69
2023/07/04 09:23:40;;;;;;;7.07;4.70;;;21.90;88.10;;;;;;5032475;28;20420;-68
2023/07/04 09:26:10;;;;;;;7.53;5.57;;;22.00;88.00;;;;;;5033063;28;20405;-68
2023/07/04 09:28:40;;;;;;;9.93;7.00;;;22.00;86.00;;;;;;5032438;28;20432;-70
2023/07/04 09:31:16;;;;;;;6.07;5.50;;;22.10;88.50;;;;;;5033194;28;20385;-68
2023/07/04 09:33:44;;;;;;;108.00;73.50;;;22.10;84.60;;;;;;5045582;28;20455;-69
2023/07/04 09:36:10;;;;;;;66.77;52.97;;;22.10;85.60;;;;;;5034731;28;20943;-69
2023/07/04 09:38:56;;;;;;;10.67;8.77;;;22.00;87.20;;;;;;5050794;28;20747;-69
2023/07/04 09:41:25;;;;;;;5.27;4.30;;;22.00;88.10;;;;;;5052462;28;20416;-69
2023/07/04 09:43:55;;;;;;;14.53;11.87;;;22.10;87.90;;;;;;5052074;28;20794;-69
2023/07/04 09:46:26;;;;;;;7.13;6.43;;;22.00;87.70;;;;;;5052371;28;20471;-69
2023/07/04 09:48:54;;;;;;;11.30;4.67;;;22.10;87.30;;;;;;5051970;28;20408;-69
2023/07/04 09:51:30;;;;;;;6.57;5.97;;;22.10;85.50;;;;;;5051787;28;20396;-69
2023/07/04 09:54:11;;;;;;;4.83;4.47;;;22.10;87.80;;;;;;5031394;28;20666;-69
2023/07/04 09:56:37;;;;;;;5.47;4.93;;;22.10;88.00;;;;;;5031854;28;20412;-69
2023/07/04 09:59:16;;;;;;;4.40;3.70;;;22.10;87.50;;;;;;5014742;28;20466;-69
2023/07/04 10:01:47;;;;;;;5.40;4.70;;;22.30;86.50;;;;;;5031454;28;20434;-69
2023/07/04 10:04:36;;;;;;;5.80;4.27;;;22.30;84.30;;;;;;5032521;28;20416;-70
2023/07/04 10:07:11;;;;;;;5.47;4.60;;;22.40;84.00;;;;;;5019327;28;20794;-69
2023/07/04 10:09:49;;;;;;;6.00;4.53;;;22.40;82.60;;;;;;5052251;28;20410;-69
2023/07/04 10:12:17;;;;;;;6.00;5.40;;;22.40;84.20;;;;;;5052221;28;20816;-69
2023/07/04 10:14:57;;;;;;;6.80;4.60;;;22.50;84.60;;;;;;5051477;28;20473;-69
2023/07/04 10:17:35;;;;;;;6.67;4.00;;;22.60;85.00;;;;;;5052168;28;20388;-69
2023/07/04 10:20:14;;;;;;;4.33;3.93;;;22.80;83.60;;;;;;5051472;28;20399;-70
2023/07/04 10:22:46;;;;;;;26.73;22.87;;;22.90;82.10;;;;;;5051520;28;20483;-70
2023/07/04 10:25:12;;;;;;;11.80;8.27;;;23.10;83.60;;;;;;5052009;28;20718;-70
2023/07/04 10:27:41;;;;;;;10.23;7.47;;;23.30;80.20;;;;;;5051407;28;20409;-69
2023/07/04 10:30:12;;;;;;;6.50;4.47;;;23.30;82.40;;;;;;5051900;28;20408;-70
2023/07/04 10:32:49;;;;;;;6.30;4.90;;;23.50;79.80;;;;;;5046057;28;20998;-69
2023/07/04 10:35:19;;;;;;;8.33;7.50;;;23.50;81.40;;;;;;5035550;28;20435;-70
2023/07/04 10:37:51;;;;;;;7.90;6.90;;;23.70;81.90;;;;;;5034833;28;20405;-69
2023/07/04 10:40:18;;;;;;;7.00;6.30;;;23.80;79.30;;;;;;5043996;28;20459;-69
2023/07/04 10:43:17;;;;;;;6.13;5.57;;;23.80;80.00;;;;;;5054790;28;20496;-69
2023/07/04 10:45:46;;;;;;;4.17;3.47;;;23.70;81.00;;;;;;5037163;28;20476;-69
2023/07/04 10:48:15;;;;;;;7.77;6.40;;;23.70;82.20;;;;;;5055260;28;20415;-69
2023/07/04 10:50:53;;;;;;;7.83;5.03;;;23.70;77.90;;;;;;5054661;28;20735;-69
2023/07/04 10:53:19;;;;;;;17.53;10.60;;;23.60;78.10;;;;;;5055210;28;20475;-69
2023/07/04 10:55:52;;;;;;;8.00;6.93;;;23.40;80.40;;;;;;5054609;28;20435;-69
2023/07/04 10:58:20;;;;;;;7.83;6.03;;;23.30;80.70;;;;;;5055103;28;20752;-69
2023/07/04 11:01:00;;;;;;;8.60;5.87;;;23.20;79.10;;;;;;5054374;28;20439;-69
2023/07/04 11:03:38;;;;;;;9.53;4.33;;;23.30;80.20;;;;;;5064900;28;20431;-68
2023/07/04 11:06:12;;;;;;;4.70;3.80;;;23.40;76.50;;;;;;5074194;28;20387;-69
2023/07/04 11:08:39;;;;;;;6.40;5.07;;;23.40;76.00;;;;;;5074990;28;20431;-69
2023/07/04 11:11:11;;;;;;;6.03;4.67;;;23.50;78.20;;;;;;5074605;28;20395;-68
2023/07/04 11:13:45;;;;;;;6.13;3.60;;;23.50;77.70;;;;;;5074771;28;20450;-69
2023/07/04 11:16:12;;;;;;;20.40;17.50;;;23.70;78.20;;;;;;5073762;28;20475;-69
2023/07/04 11:18:44;;;;;;;33.90;29.67;;;23.80;75.00;;;;;;5074661;28;20438;-69
2023/07/04 11:21:13;;;;;;;11.73;10.57;;;23.80;73.10;;;;;;5074914;28;20793;-67
2023/07/04 11:23:54;;;;;;;4.10;3.70;;;23.80;74.30;;;;;;5074583;28;20780;-68
2023/07/04 11:26:40;;;;;;;15.63;9.90;;;23.50;73.00;;;;;;5074636;28;20403;-67
2023/07/04 11:29:15;;;;;;;10.90;9.80;;;23.50;77.00;;;;;;5074568;28;20468;-68
2023/07/04 11:32:03;;;;;;;4.53;3.90;;;23.60;77.40;;;;;;5073274;28;20415;-69
2023/07/04 11:34:45;;;;;;;4.80;4.43;;;23.60;76.50;;;;;;5074684;28;20431;-65
2023/07/04 11:37:17;;;;;;;3.90;3.47;;;23.80;73.30;;;;;;5074347;28;20415;-65
2023/07/04 11:39:49;;;;;;;5.67;3.47;;;24.00;73.70;;;;;;5063150;28;20558;-65
2023/07/04 11:42:22;;;;;;;3.80;3.50;;;24.10;72.30;;;;;;5053558;28;20856;-64
2023/07/04 11:45:01;;;;;;;4.10;3.73;;;24.30;71.10;;;;;;5053612;28;20430;-65
2023/07/04 11:47:34;;;;;;;3.60;3.40;;;24.40;72.90;;;;;;5054351;28;20813;-65
2023/07/04 11:50:03;;;;;;;4.00;3.50;;;24.50;71.00;;;;;;5053218;28;20381;-66
2023/07/04 11:52:32;;;;;;;5.10;3.27;;;24.70;72.10;;;;;;5053586;28;20513;-66
2023/07/04 11:55:10;;;;;;;4.47;4.07;;;24.70;66.40;;;;;;5053312;28;20450;-66
2023/07/04 11:58:00;;;;;;;3.33;3.03;;;24.70;66.60;;;;;;5053876;28;20392;-66
2023/07/04 12:00:30;;;;;;;5.87;5.30;;;24.70;71.10;;;;;;5052678;28;20428;-66
2023/07/04 12:02:56;;;;;;;8.43;5.50;;;24.90;69.90;;;;;;5052941;28;20427;-66
2023/07/04 12:05:33;;;;;;;4.40;4.00;;;24.90;69.90;;;;;;5053731;28;20393;-66
2023/07/04 12:08:07;;;;;;;6.83;6.17;;;25.10;70.50;;;;;;5052899;28;20470;-65
2023/07/04 12:10:35;;;;;;;5.03;3.77;;;25.20;72.10;;;;;;5053446;28;20882;-66
2023/07/04 12:13:06;;;;;;;5.50;4.50;;;25.20;70.00;;;;;;5052981;28;20463;-66
2023/07/04 12:15:34;;;;;;;4.90;4.20;;;25.10;69.60;;;;;;5051761;28;20420;-66
2023/07/04 12:18:12;;;;;;;6.27;4.13;;;25.10;68.90;;;;;;5052733;28;20423;-65
2023/07/04 12:20:39;;;;;;;5.60;5.07;;;24.90;68.80;;;;;;5053924;28;20426;-65
2023/07/04 12:23:09;;;;;;;6.50;5.90;;;24.70;68.70;;;;;;5052771;28;20412;-66
2023/07/04 12:25:41;;;;;;;5.90;5.13;;;24.70;70.70;;;;;;5053381;28;20380;-65
2023/07/04 12:28:11;;;;;;;6.63;5.57;;;24.70;67.10;;;;;;5053016;28;20393;-65
2023/07/04 12:30:59;;;;;;;5.70;5.10;;;24.60;69.50;;;;;;5051439;28;20423;-65
2023/07/04 12:33:31;;;;;;;5.30;4.90;;;24.50;71.20;;;;;;5042636;28;20581;-61
2023/07/04 12:36:06;;;;;;;5.67;5.03;;;24.60;70.60;;;;;;5052271;28;20772;-60
2023/07/04 12:38:33;;;;;;;6.67;5.43;;;24.70;74.20;;;;;;5049256;28;20427;-60
2023/07/04 12:41:00;;;;;;;6.13;5.53;;;24.70;71.40;;;;;;5034144;28;20417;-60
2023/07/04 12:43:31;;;;;;;6.90;5.33;;;24.70;71.10;;;;;;5053073;28;20396;-60
2023/07/04 12:46:26;;;;;;;5.90;5.30;;;24.80;69.00;;;;;;5048549;28;20410;-60
2023/07/04 12:48:53;;;;;;;6.33;5.77;;;24.70;69.10;;;;;;5028751;28;20503;-61
2023/07/04 12:51:26;;;;;;;5.13;4.63;;;24.70;70.60;;;;;;5045100;28;20417;-61
2023/07/04 12:53:53;;;;;;;6.20;5.60;;;24.80;72.40;;;;;;5050706;28;20443;-61
2023/07/04 12:56:20;;;;;;;8.63;6.10;;;24.80;70.10;;;;;;5039593;28;20416;-60
2023/07/04 12:58:47;;;;;;;6.23;5.67;;;24.60;68.00;;;;;;5047180;28;20420;-60